createdAt,value
2022-10-11T00:01:09.107Z,101882.94
2022-10-11T00:06:10.772Z,101886.41
2022-10-11T00:11:12.197Z,101902.88
2022-10-11T00:16:15.305Z,101905.47
2022-10-11T00:21:16.814Z,101909.81
2022-10-11T00:26:18.323Z,101917.59
2022-10-11T00:31:22.308Z,101905.44
2022-10-11T00:36:23.765Z,101922.78
2022-10-11T00:41:25.265Z,101933.19
2022-10-11T00:46:29.958Z,101933.19
2022-10-11T00:51:34.124Z,101929.72
2022-10-11T00:56:38.722Z,101929.75
2022-10-11T01:01:40.157Z,101934.94
2022-10-11T01:06:42.108Z,101931.50
2022-10-11T01:11:44.497Z,101944.44
2022-10-11T01:16:57.601Z,101931.44
2022-10-11T01:22:20.286Z,101951.38
2022-10-11T01:27:42.061Z,101946.16
2022-10-11T01:32:57.144Z,101949.63
2022-10-11T01:38:04.252Z,101958.28
2022-10-11T01:43:06.122Z,101959.97
2022-10-11T01:48:10.774Z,101967.78
2022-10-11T01:53:14.920Z,101976.41
2022-10-11T01:58:42.389Z,101976.41
2022-10-11T02:03:59.165Z,101982.44
2022-10-11T02:09:32.166Z,101972.84
2022-10-11T02:14:40.282Z,101981.50
2022-10-11T02:19:46.972Z,101995.41
2022-10-11T02:24:52.655Z,101999.78
2022-10-11T02:29:55.981Z,101999.69
2022-10-11T02:35:00.420Z,101995.31
2022-10-11T02:40:19.943Z,102003.16
2022-10-11T02:45:31.560Z,102014.38
2022-10-11T02:50:33.328Z,102004.84
2022-10-11T02:55:35.340Z,102012.66
2022-10-11T03:00:36.795Z,102018.66
2022-10-11T03:05:41.442Z,102016.94
2022-10-11T03:10:43.024Z,102011.72
2022-10-11T03:15:49.363Z,102020.31
2022-10-11T03:20:50.838Z,102025.44
2022-10-11T03:25:52.392Z,102029.69
2022-10-11T03:30:53.956Z,102032.31
2022-10-11T03:35:55.365Z,102038.44
2022-10-11T03:40:57.036Z,102050.59
2022-10-11T03:45:58.461Z,102054.06
2022-10-11T03:51:00.014Z,102062.75
2022-10-11T03:56:05.908Z,102067.94
2022-10-11T04:01:09.767Z,102070.47
2022-10-11T04:06:11.392Z,102075.59
2022-10-11T04:11:12.881Z,102073.81
2022-10-11T04:16:14.571Z,102077.25
2022-10-11T04:21:16.030Z,102074.63
2022-10-11T04:26:17.464Z,102086.75
2022-10-11T04:31:18.889Z,102090.22
2022-10-11T04:36:20.328Z,102085.78
2022-10-11T04:41:21.880Z,102096.16
2022-10-11T04:46:23.679Z,102095.31
2022-10-11T04:51:25.807Z,102097.00
2022-10-11T04:56:27.356Z,102095.31
2022-10-11T05:01:29.156Z,102109.16
2022-10-11T05:06:30.652Z,102111.75
2022-10-11T05:11:32.077Z,102119.50
2022-10-11T05:16:33.549Z,102128.16
2022-10-11T05:21:34.949Z,102127.25
2022-10-11T05:26:36.384Z,102149.69
2022-10-11T05:31:37.886Z,102155.75
2022-10-11T05:36:39.408Z,102161.69
2022-10-11T05:41:40.854Z,102170.22
2022-10-11T05:46:42.450Z,102177.22
2022-10-11T05:51:43.913Z,102185.06
2022-10-11T05:56:45.381Z,102186.84
2022-10-11T06:01:46.931Z,102196.38
2022-10-11T06:06:48.431Z,102202.50
2022-10-11T06:11:50.061Z,102206.19
2022-10-11T06:16:51.792Z,102209.00
2022-10-11T06:21:53.199Z,102211.69
2022-10-11T06:26:55.548Z,102216.69
2022-10-11T06:31:58.341Z,102225.31
2022-10-11T06:36:59.836Z,102233.22
2022-10-11T06:42:01.502Z,102228.09
2022-10-11T06:47:02.946Z,102237.72
2022-10-11T06:52:05.021Z,102223.97
2022-10-11T06:57:06.458Z,102250.13
2022-10-11T07:02:08.687Z,102255.63
2022-10-11T07:07:13.481Z,102262.06
2022-10-11T07:12:16.146Z,102269.94
2022-10-11T07:17:17.609Z,102263.03
2022-10-11T07:22:19.023Z,102270.00
2022-10-11T07:27:23.141Z,102269.16
2022-10-11T07:32:24.584Z,102282.25
2022-10-11T07:37:26.021Z,102284.00
2022-10-11T07:42:27.424Z,102279.66
2022-10-11T07:47:28.952Z,102282.28
2022-10-11T07:52:30.391Z,102296.19
2022-10-11T07:57:31.817Z,102300.56
2022-10-11T08:02:33.301Z,102308.41
2022-10-11T08:07:35.026Z,102290.13
2022-10-11T08:12:36.440Z,102299.66
2022-10-11T08:17:37.966Z,102305.72
2022-10-11T08:22:39.840Z,102303.03
2022-10-11T08:27:41.272Z,102303.78
2022-10-11T08:32:42.828Z,102305.28
2022-10-11T08:37:44.261Z,102307.69
2022-10-11T08:42:53.992Z,102301.53
2022-10-11T08:48:12.706Z,102305.38
2022-10-11T08:53:28.284Z,102305.19
2022-10-11T08:59:00.808Z,102317.50
2022-10-11T09:04:03.578Z,102321.38
2022-10-11T09:09:14.093Z,102323.34
2022-10-11T09:14:39.110Z,102331.00
2022-10-11T09:19:53.820Z,102321.91
2022-10-11T09:25:21.609Z,102325.88
2022-10-11T09:30:23.189Z,102327.41
2022-10-11T09:35:25.394Z,102331.44
2022-10-11T09:41:00.584Z,102341.22
2022-10-11T09:46:02.714Z,102341.19
2022-10-11T09:51:24.188Z,102322.53
2022-10-11T09:56:28.602Z,102338.16
2022-10-11T10:01:31.381Z,102343.81
2022-10-11T10:06:33.672Z,102339.72
2022-10-11T10:11:38.164Z,102349.78
2022-10-11T10:16:39.822Z,102366.09
2022-10-11T10:21:48.029Z,102372.22
2022-10-11T10:27:14.349Z,102373.28
2022-10-11T10:32:23.367Z,102377.59
2022-10-11T10:37:26.165Z,102374.72
2022-10-11T10:42:28.144Z,102377.72
2022-10-11T10:47:51.040Z,102393.59
2022-10-11T10:53:05.958Z,102394.84
2022-10-11T10:58:22.851Z,102388.75
2022-10-11T11:03:35.553Z,102397.19
2022-10-11T11:08:56.025Z,102379.22
2022-10-11T11:14:09.313Z,102380.84
2022-10-11T11:19:25.219Z,102374.66
2022-10-11T11:24:38.978Z,102382.88
2022-10-11T11:29:55.406Z,102390.75
2022-10-11T11:35:03.704Z,102369.59
2022-10-11T11:40:14.880Z,102394.91
2022-10-11T11:45:26.052Z,102402.28
2022-10-11T11:50:34.625Z,102408.06
2022-10-11T11:56:07.224Z,102396.41
2022-10-11T12:01:31.542Z,102387.94
2022-10-11T12:06:37.863Z,102392.91
2022-10-11T12:12:06.778Z,102378.47
2022-10-11T12:17:18.273Z,102387.09
2022-10-11T12:22:28.867Z,102380.69
2022-10-11T12:27:41.046Z,102375.84
2022-10-11T12:32:42.960Z,102378.19
2022-10-11T12:37:50.887Z,102367.53
2022-10-11T12:43:12.059Z,102370.38
2022-10-11T12:48:41.277Z,102374.47
2022-10-11T12:54:25.538Z,102378.44
2022-10-11T12:59:24.298Z,102376.97
2022-10-11T13:04:32.207Z,102379.56
2022-10-11T13:09:39.091Z,102383.28
2022-10-11T13:14:47.600Z,102377.31
2022-10-11T13:19:59.465Z,102373.84
2022-10-11T13:25:05.078Z,102377.34
2022-10-11T13:30:12.962Z,102391.25
2022-10-11T13:35:24.904Z,102388.16
2022-10-11T13:40:27.375Z,102378.94
2022-10-11T13:45:30.779Z,102388.44
2022-10-11T13:50:34.247Z,102393.69
2022-10-11T13:55:51.206Z,102399.31
2022-10-11T14:00:56.142Z,102399.25
2022-10-11T14:05:59.401Z,102390.09
2022-10-11T14:11:06.065Z,102388.53
2022-10-11T14:16:13.992Z,102389.25
2022-10-11T14:21:33.708Z,102390.38
2022-10-11T14:26:42.089Z,102396.63
2022-10-11T14:31:44.880Z,102398.66
2022-10-11T14:36:47.100Z,102400.75
2022-10-11T14:41:49.800Z,102407.88
2022-10-11T14:46:54.507Z,102405.28
2022-10-11T14:51:58.869Z,102394.44
2022-10-11T14:57:02.632Z,102398.22
2022-10-11T15:02:06.344Z,102405.03
2022-10-11T15:07:07.902Z,102407.97
2022-10-11T15:12:09.411Z,102416.00
2022-10-11T15:17:12.452Z,102415.09
2022-10-11T15:22:13.937Z,102412.00
2022-10-11T15:27:17.317Z,102413.66
2022-10-11T15:32:18.787Z,102407.31
2022-10-11T15:37:20.250Z,102423.31
2022-10-11T15:42:21.695Z,102419.97
2022-10-11T15:47:23.427Z,102427.06
2022-10-11T15:52:25.057Z,102427.72
2022-10-11T15:57:26.689Z,102436.13
2022-10-11T16:02:28.695Z,102439.41
2022-10-11T16:07:30.245Z,102439.59
2022-10-11T16:12:31.743Z,102430.09
2022-10-11T16:17:33.316Z,102441.63
2022-10-11T16:22:35.184Z,102440.97
2022-10-11T16:27:36.959Z,102439.41
2022-10-11T16:32:39.366Z,102440.34
2022-10-11T16:37:40.807Z,102438.63
2022-10-11T16:42:42.284Z,102449.22
2022-10-11T16:47:44.218Z,102443.09
2022-10-11T16:52:45.725Z,102446.63
2022-10-11T16:57:47.236Z,102454.59
2022-10-11T17:02:48.653Z,102443.22
2022-10-11T17:07:50.209Z,102445.06
2022-10-11T17:12:55.041Z,102447.63
2022-10-11T17:17:56.606Z,102437.16
2022-10-11T17:22:58.299Z,102441.69
2022-10-11T17:27:59.746Z,102444.34
2022-10-11T17:33:01.251Z,102439.09
2022-10-11T17:38:06.207Z,102448.78
2022-10-11T17:43:08.035Z,102449.84
2022-10-11T17:48:09.452Z,102452.63
2022-10-11T17:53:10.868Z,102443.94
2022-10-11T17:58:12.878Z,102455.28
2022-10-11T18:03:14.315Z,102450.94
2022-10-11T18:08:15.777Z,102457.03
2022-10-11T18:13:17.693Z,102447.53
2022-10-11T18:18:19.264Z,102446.50
2022-10-11T18:23:20.755Z,102453.72
2022-10-11T18:28:22.521Z,102450.13
2022-10-11T18:33:24.108Z,102453.72
2022-10-11T18:38:25.557Z,102453.84
2022-10-11T18:43:26.964Z,102452.22
2022-10-11T18:48:28.470Z,102455.72
2022-10-11T18:53:30.223Z,102449.63
2022-10-11T18:58:33.582Z,102457.59
2022-10-11T19:03:35.748Z,102448.03
2022-10-11T19:08:37.191Z,102445.41
2022-10-11T19:13:39.477Z,102448.09
2022-10-11T19:18:44.281Z,102449.00
2022-10-11T19:23:47.367Z,102454.28
2022-10-11T19:28:54.854Z,102457.81
2022-10-11T19:33:56.968Z,102452.56
2022-10-11T19:38:58.489Z,102430.78
2022-10-11T19:43:59.967Z,102448.16
2022-10-11T19:49:04.318Z,102447.22
2022-10-11T19:54:08.540Z,102446.41
2022-10-11T19:59:11.142Z,102446.41
2022-10-11T20:04:33.163Z,102450.75
2022-10-11T20:09:34.243Z,102455.94
2022-10-11T20:14:35.846Z,102449.81
2022-10-11T20:19:37.374Z,102448.09
2022-10-11T20:24:38.825Z,102445.47
2022-10-11T20:29:40.449Z,102446.38
2022-10-11T20:34:41.864Z,102450.72
2022-10-11T20:39:43.268Z,102451.66
2022-10-11T20:44:44.788Z,102453.38
2022-10-11T20:49:46.269Z,102452.47
2022-10-11T20:54:47.759Z,102458.59
2022-10-11T20:59:49.297Z,102464.72
2022-10-11T21:04:51.417Z,102452.53
2022-10-11T21:09:52.888Z,102454.25
2022-10-11T21:14:54.365Z,102454.25
2022-10-11T21:19:55.780Z,102456.88
2022-10-11T21:24:57.284Z,102457.72
2022-10-11T21:29:58.725Z,102448.16
2022-10-11T21:35:00.151Z,102460.34
2022-10-11T21:40:01.592Z,102457.72
2022-10-11T21:45:03.783Z,102465.59
2022-10-11T21:50:05.864Z,102457.78
2022-10-11T21:55:07.460Z,102455.97
2022-10-11T22:00:09.854Z,102449.06
2022-10-11T22:05:11.316Z,102447.31
2022-10-11T22:10:12.860Z,102465.63
2022-10-11T22:15:14.343Z,102473.47
2022-10-11T22:20:15.893Z,102473.44
2022-10-11T22:25:17.355Z,102469.06
2022-10-11T22:30:18.760Z,102468.25
2022-10-11T22:35:20.252Z,102465.66
2022-10-11T22:40:21.722Z,102471.78
2022-10-11T22:45:23.175Z,102474.38
2022-10-11T22:50:24.617Z,102473.50
2022-10-11T22:55:26.160Z,102482.22
2022-10-11T23:00:27.739Z,102470.94
2022-10-11T23:05:29.364Z,102479.59
2022-10-11T23:10:31.105Z,102483.09
2022-10-11T23:15:32.545Z,102481.34
2022-10-11T23:20:34.019Z,102477.91
2022-10-11T23:25:35.492Z,102490.13
2022-10-11T23:30:39.229Z,102498.00
2022-10-11T23:35:40.632Z,102496.22
2022-10-11T23:40:42.641Z,102493.63
2022-10-11T23:45:45.069Z,102494.53
2022-10-11T23:50:46.498Z,102495.38
2022-10-11T23:55:47.917Z,102498.00
